Погода Гилбуесна 2 недели

Пиауи, Бразилия

13 - 25 июля
  • 13июля
    Сегодня
    +18°
    +33°
    Облачно с прояснениями
    ВремяПогодаТемператураВлажностьДавлениеВетер, м/сВероятность осадков
    00:00Ясно и безоблачно+24°C54 %722 мм3.2 м/с5 %
    03:00Облачно с прояснениями+23°C58 %722 мм4.0 м/с5 %
    06:00Облачно с прояснениями+21°C70 %723 мм4.2 м/с5 %
    09:00Облачно с прояснениями+24°C54 %724 мм5.8 м/с5 %
    12:00Облачно с прояснениями+30°C35 %724 мм5.0 м/с5 %
    15:00Облачно с прояснениями+33°C27 %722 мм3.9 м/с5 %
    18:00Практически безоблачно+30°C30 %721 мм2.7 м/с5 %
    21:00Ясно и безоблачно+26°C36 %723 мм3.3 м/с5 %
  • 14июля
    Воскресенье
    +18°
    +33°
    Небольшая облачность
    ВремяПогодаТемператураВлажностьДавлениеВетер, м/сВероятность осадков
    00:00Ясно и безоблачно+24°C44 %723 мм4.4 м/с5 %
    03:00Ясно и безоблачно+21°C49 %722 мм3.8 м/с5 %
    06:00Небольшая облачность+19°C59 %723 мм4.3 м/с5 %
    09:00Небольшая облачность+24°C52 %725 мм6.3 м/с5 %
    12:00Ясно и безоблачно+29°C32 %724 мм5.1 м/с5 %
    15:00Небольшая облачность+32°C25 %722 мм4.2 м/с5 %
    18:00Небольшая облачность+29°C29 %721 мм3.1 м/с5 %
    21:00Небольшая облачность+26°C36 %723 мм3.3 м/с5 %
  • 15июля
    Понедельник
    +19°
    +33°
    Ясно и безоблачно
    ВремяПогодаТемператураВлажностьДавлениеВетер, м/сВероятность осадков
    00:00Небольшая облачность+22°C44 %723 мм2.4 м/с5 %
    03:00Ясно и безоблачно+21°C51 %722 мм3.3 м/с5 %
    06:00Ясно и безоблачно+19°C63 %723 мм3.0 м/с5 %
    09:00Ясно и безоблачно+24°C57 %725 мм5.0 м/с5 %
    12:00Ясно и безоблачно+29°C35 %724 мм4.7 м/с5 %
    15:00Ясно и безоблачно+33°C28 %722 мм3.9 м/с5 %
    18:00Ясно и безоблачно+30°C32 %722 мм2.4 м/с5 %
    21:00Ясно и безоблачно+26°C40 %723 мм2.3 м/с5 %
  • 16июля
    Вторник
    +18°
    +33°
    Ясно и безоблачно
    ВремяПогодаТемператураВлажностьДавлениеВетер, м/сВероятность осадков
    00:00Ясно и безоблачно+23°C46 %723 мм2.7 м/с5 %
    03:00Ясно и безоблачно+21°C51 %723 мм3.8 м/с5 %
    06:00Ясно и безоблачно+19°C60 %723 мм2.9 м/с5 %
    09:00Ясно и безоблачно+24°C55 %726 мм5.1 м/с5 %
    12:00Ясно и безоблачно+30°C30 %725 мм5.8 м/с5 %
    15:00Ясно и безоблачно+33°C25 %723 мм4.8 м/с5 %
    18:00Ясно и безоблачно+29°C29 %723 мм2.7 м/с5 %
    21:00Ясно и безоблачно+26°C37 %724 мм2.8 м/с5 %
Мы используем cookies
Соглашаюсь